createdAt,value
2023-03-05T00:01:11.943Z,4.58
2023-03-05T00:04:33.538Z,4.85
2023-03-05T00:07:57.887Z,4.83
2023-03-05T00:11:20.620Z,4.96
2023-03-05T00:14:42.470Z,4.97
2023-03-05T00:18:06.290Z,5.14
2023-03-05T00:21:31.030Z,4.95
2023-03-05T00:24:54.857Z,5.00
2023-03-05T00:28:19.882Z,4.71
2023-03-05T00:31:41.525Z,4.76
2023-03-05T00:35:03.241Z,4.82
2023-03-05T00:38:27.166Z,5.03
2023-03-05T00:41:49.449Z,4.93
2023-03-05T00:45:17.588Z,5.07
2023-03-05T00:48:39.193Z,4.83
2023-03-05T00:52:00.732Z,5.09
2023-03-05T00:55:22.372Z,3.96
2023-03-05T00:58:43.990Z,4.21
2023-03-05T01:02:07.920Z,4.07
2023-03-05T01:05:31.790Z,4.03
2023-03-05T01:08:53.415Z,3.69
2023-03-05T01:12:15.089Z,3.83
2023-03-05T01:15:36.982Z,4.31
2023-03-05T01:18:58.563Z,4.30
2023-03-05T01:22:20.307Z,4.17
2023-03-05T01:25:44.149Z,4.65
2023-03-05T01:29:05.873Z,4.90
2023-03-05T01:32:27.536Z,4.51
2023-03-05T01:35:49.614Z,4.79
2023-03-05T01:39:11.257Z,4.89
2023-03-05T01:42:32.874Z,4.93
2023-03-05T01:46:13.233Z,5.17
2023-03-05T01:49:40.429Z,4.76
2023-03-05T01:53:05.806Z,4.59
2023-03-05T01:56:29.309Z,4.65
2023-03-05T01:59:54.472Z,4.80
2023-03-05T02:03:16.684Z,5.01
2023-03-05T02:06:41.601Z,4.97
2023-03-05T02:10:24.872Z,4.87
2023-03-05T02:13:49.241Z,4.89
2023-03-05T02:17:12.468Z,4.87
2023-03-05T02:21:09.858Z,5.12
2023-03-05T02:24:37.314Z,4.87
2023-03-05T02:28:05.996Z,4.80
2023-03-05T02:31:27.946Z,4.99
2023-03-05T02:34:49.542Z,5.07
2023-03-05T02:38:14.866Z,4.86
2023-03-05T02:41:36.544Z,4.90
2023-03-05T02:44:58.261Z,4.96
2023-03-05T02:48:22.489Z,4.87
2023-03-05T02:51:44.143Z,4.89
2023-03-05T02:55:08.470Z,4.76
2023-03-05T02:58:30.118Z,4.85
2023-03-05T03:01:56.857Z,4.85
2023-03-05T03:05:18.624Z,5.12
2023-03-05T03:08:40.210Z,4.96
2023-03-05T03:12:03.119Z,4.92
2023-03-05T03:15:26.899Z,4.95
2023-03-05T03:18:53.451Z,5.06
2023-03-05T03:22:16.455Z,5.06
2023-03-05T03:25:38.072Z,4.93
2023-03-05T03:29:02.338Z,5.03
2023-03-05T03:32:23.991Z,4.82
2023-03-05T03:35:46.392Z,4.83
2023-03-05T03:39:10.012Z,4.89
2023-03-05T03:42:31.862Z,5.20
2023-03-05T03:45:58.210Z,5.34
2023-03-05T03:49:22.145Z,5.33
2023-03-05T03:52:43.715Z,5.52
2023-03-05T03:56:05.485Z,5.59
2023-03-05T03:59:27.154Z,5.52
2023-03-05T04:02:48.834Z,5.48
2023-03-05T04:06:10.763Z,5.33
2023-03-05T04:09:32.331Z,5.20
2023-03-05T04:12:53.956Z,4.93
2023-03-05T04:16:16.391Z,4.89
2023-03-05T04:19:40.926Z,5.23
2023-03-05T04:23:02.554Z,5.22
2023-03-05T04:26:24.290Z,5.35
2023-03-05T04:29:45.828Z,5.33
2023-03-05T04:33:07.595Z,5.54
2023-03-05T04:36:32.279Z,5.45
2023-03-05T04:39:56.299Z,5.50
2023-03-05T04:43:18.448Z,5.45
2023-03-05T04:46:40.604Z,5.38
2023-03-05T04:50:02.446Z,5.34
2023-03-05T04:53:26.633Z,5.38
2023-03-05T04:56:50.795Z,5.06
2023-03-05T05:00:16.795Z,5.19
2023-03-05T05:03:40.884Z,5.28
2023-03-05T05:07:02.997Z,5.01
2023-03-05T05:10:27.729Z,5.19
2023-03-05T05:13:52.028Z,5.19
2023-03-05T05:17:13.560Z,5.06
2023-03-05T05:20:38.689Z,4.51
2023-03-05T05:24:00.470Z,4.82
2023-03-05T05:27:22.696Z,4.69
2023-03-05T05:30:44.318Z,4.76
2023-03-05T05:34:06.019Z,4.96
2023-03-05T05:37:27.913Z,4.61
2023-03-05T05:40:49.529Z,4.95
2023-03-05T05:44:13.527Z,4.62
2023-03-05T05:47:37.374Z,4.52
2023-03-05T05:50:59.593Z,4.71
2023-03-05T05:54:23.553Z,4.86
2023-03-05T05:57:49.896Z,5.26
2023-03-05T06:01:33.216Z,4.87
2023-03-05T06:04:58.251Z,4.86
2023-03-05T06:08:20.312Z,4.96
2023-03-05T06:11:41.882Z,4.87
2023-03-05T06:15:06.424Z,4.79
2023-03-05T06:18:28.392Z,5.00
2023-03-05T06:21:50.295Z,5.23
2023-03-05T06:25:15.379Z,4.69
2023-03-05T06:28:37.584Z,4.96
2023-03-05T06:31:59.236Z,4.87
2023-03-05T06:35:23.355Z,5.14
2023-03-05T06:38:45.066Z,5.10
2023-03-05T06:42:06.794Z,4.75
2023-03-05T06:45:28.427Z,4.89
2023-03-05T06:48:53.823Z,5.24
2023-03-05T06:52:15.565Z,5.23
2023-03-05T06:55:39.840Z,5.55
2023-03-05T06:59:01.464Z,5.33
2023-03-05T07:02:25.845Z,5.51
2023-03-05T07:05:49.903Z,5.44
2023-03-05T07:09:14.991Z,5.27
2023-03-05T07:12:38.753Z,4.95
2023-03-05T07:16:04.630Z,5.30
2023-03-05T07:19:26.203Z,5.55
2023-03-05T07:22:48.074Z,5.50
2023-03-05T07:26:12.991Z,5.69
2023-03-05T07:29:35.278Z,5.48
2023-03-05T07:32:56.809Z,5.27
2023-03-05T07:36:20.914Z,5.22
2023-03-05T07:39:42.461Z,5.34
2023-03-05T07:43:04.094Z,5.22
2023-03-05T07:46:31.439Z,5.28
2023-03-05T07:49:55.499Z,5.17
2023-03-05T07:53:19.373Z,5.17
2023-03-05T07:56:43.455Z,5.44
2023-03-05T08:00:07.171Z,5.13
2023-03-05T08:03:28.800Z,5.50
2023-03-05T08:06:53.141Z,5.28
2023-03-05T08:10:14.738Z,5.09
2023-03-05T08:13:38.775Z,5.24
2023-03-05T08:17:00.376Z,5.54
2023-03-05T08:20:27.471Z,5.56
2023-03-05T08:23:52.214Z,5.59
2023-03-05T08:27:13.777Z,5.47
2023-03-05T08:30:36.006Z,5.19
2023-03-05T08:33:59.925Z,5.24
2023-03-05T08:37:21.549Z,5.54
2023-03-05T08:40:47.702Z,5.79
2023-03-05T08:44:09.601Z,5.85
2023-03-05T08:47:31.212Z,5.68
2023-03-05T08:50:53.290Z,6.06
2023-03-05T08:54:17.427Z,6.16
2023-03-05T08:57:41.295Z,5.59
2023-03-05T09:01:03.015Z,5.82
2023-03-05T09:04:24.594Z,6.11
2023-03-05T09:07:48.867Z,6.13
2023-03-05T09:11:14.494Z,6.30
2023-03-05T09:14:38.360Z,6.61
2023-03-05T09:18:00.105Z,6.20
2023-03-05T09:21:21.987Z,6.52
2023-03-05T09:24:48.766Z,6.74
2023-03-05T09:28:10.353Z,6.67
2023-03-05T09:31:32.605Z,6.69
2023-03-05T09:34:56.572Z,6.71
2023-03-05T09:38:19.358Z,7.02
2023-03-05T09:41:52.196Z,7.23
2023-03-05T09:45:31.312Z,7.03
2023-03-05T09:49:46.619Z,7.03
2023-03-05T09:53:32.392Z,6.69
2023-03-05T09:56:59.031Z,7.10
2023-03-05T10:00:38.946Z,7.51
2023-03-05T10:04:09.877Z,7.60
2023-03-05T10:07:37.708Z,7.89
2023-03-05T10:11:01.994Z,7.98
2023-03-05T10:14:33.204Z,7.55
2023-03-05T10:18:19.624Z,7.77
2023-03-05T10:22:00.875Z,7.91
2023-03-05T10:25:25.329Z,7.51
2023-03-05T10:29:12.057Z,7.86
2023-03-05T10:32:51.435Z,8.05
2023-03-05T10:36:22.587Z,7.93
2023-03-05T10:40:16.138Z,7.51
2023-03-05T10:43:45.494Z,6.98
2023-03-05T10:47:23.970Z,6.93
2023-03-05T10:50:53.646Z,7.10
2023-03-05T10:54:28.976Z,7.43
2023-03-05T10:57:53.276Z,7.77
2023-03-05T11:01:15.634Z,7.77
2023-03-05T11:04:39.657Z,7.77
2023-03-05T11:08:20.784Z,7.37
2023-03-05T11:11:42.525Z,7.27
2023-03-05T11:15:27.747Z,7.63
2023-03-05T11:18:51.946Z,7.34
2023-03-05T11:22:21.868Z,6.82
2023-03-05T11:26:01.640Z,6.91
2023-03-05T11:29:33.539Z,6.45
2023-03-05T11:33:09.427Z,6.89
2023-03-05T11:36:40.929Z,7.09
2023-03-05T11:40:21.664Z,6.86
2023-03-05T11:43:46.384Z,7.16
2023-03-05T11:47:26.786Z,7.24
2023-03-05T11:50:54.582Z,7.28
2023-03-05T11:54:23.019Z,7.51
2023-03-05T11:57:52.448Z,7.53
2023-03-05T12:01:23.460Z,6.99
2023-03-05T12:04:48.712Z,7.10
2023-03-05T12:08:15.906Z,7.70
2023-03-05T12:11:39.925Z,8.10
2023-03-05T12:15:25.392Z,8.03
2023-03-05T12:18:52.767Z,8.43
2023-03-05T12:22:22.402Z,8.56
2023-03-05T12:25:57.552Z,8.51
2023-03-05T12:29:30.600Z,8.59
2023-03-05T12:32:54.037Z,8.39
2023-03-05T12:36:21.921Z,8.57
2023-03-05T12:39:47.737Z,8.57
2023-03-05T12:43:33.069Z,9.05
2023-03-05T12:47:11.230Z,9.11
2023-03-05T12:50:47.629Z,9.08
2023-03-05T12:54:30.547Z,9.47
2023-03-05T12:58:10.990Z,9.27
2023-03-05T13:01:46.692Z,9.37
2023-03-05T13:05:33.087Z,10.02
2023-03-05T13:09:09.563Z,9.15
2023-03-05T13:12:31.221Z,8.64
2023-03-05T13:15:53.464Z,8.85
2023-03-05T13:19:18.342Z,8.67
2023-03-05T13:22:45.165Z,8.44
2023-03-05T13:26:21.660Z,8.26
2023-03-05T13:29:52.377Z,8.06
2023-03-05T13:33:19.142Z,8.03
2023-03-05T13:36:48.648Z,8.28
2023-03-05T13:40:26.881Z,8.30
2023-03-05T13:43:54.567Z,8.10
2023-03-05T13:47:21.156Z,7.79
2023-03-05T13:50:45.054Z,7.98
2023-03-05T13:54:10.318Z,7.43
2023-03-05T13:57:39.920Z,7.92
2023-03-05T14:01:18.165Z,7.48
2023-03-05T14:04:44.359Z,7.64
2023-03-05T14:08:22.577Z,7.75
2023-03-05T14:11:58.703Z,7.71
2023-03-05T14:15:27.655Z,7.37
2023-03-05T14:18:58.840Z,7.65
2023-03-05T14:22:35.657Z,7.26
2023-03-05T14:26:15.968Z,7.50
2023-03-05T14:29:41.271Z,7.44
2023-03-05T14:33:06.677Z,7.72
2023-03-05T14:36:29.716Z,7.50
2023-03-05T14:39:56.478Z,7.37
2023-03-05T14:43:20.848Z,7.57
2023-03-05T14:46:43.660Z,7.68
2023-03-05T14:50:08.773Z,7.67
2023-03-05T14:53:45.702Z,7.68
2023-03-05T14:57:15.825Z,7.82
2023-03-05T15:00:37.394Z,7.92
2023-03-05T15:03:59.134Z,8.09
2023-03-05T15:07:23.713Z,8.19
2023-03-05T15:10:45.303Z,7.99
2023-03-05T15:14:06.885Z,8.13
2023-03-05T15:17:37.065Z,8.12
2023-03-05T15:20:58.773Z,7.26
2023-03-05T15:24:20.353Z,7.19
2023-03-05T15:27:42.161Z,7.34
2023-03-05T15:31:05.194Z,7.06
2023-03-05T15:34:27.732Z,7.13
2023-03-05T15:37:54.561Z,7.23
2023-03-05T15:41:17.631Z,7.51
2023-03-05T15:44:40.717Z,7.60
2023-03-05T15:48:02.278Z,7.55
2023-03-05T15:51:28.820Z,6.81
2023-03-05T15:54:50.423Z,6.85
2023-03-05T15:58:17.160Z,6.78
2023-03-05T16:01:47.788Z,6.58
2023-03-05T16:05:10.252Z,6.72
2023-03-05T16:08:35.609Z,6.50
2023-03-05T16:11:57.327Z,6.48
2023-03-05T16:15:22.591Z,6.26
2023-03-05T16:18:46.421Z,6.40
2023-03-05T16:22:10.060Z,6.64
2023-03-05T16:25:34.017Z,6.48
2023-03-05T16:28:55.599Z,6.36
2023-03-05T16:32:18.205Z,6.23
2023-03-05T16:35:42.314Z,5.93
2023-03-05T16:39:05.132Z,6.00
2023-03-05T16:42:26.745Z,5.78
2023-03-05T16:45:48.981Z,6.00
2023-03-05T16:49:10.701Z,5.75
2023-03-05T16:52:32.501Z,6.05
2023-03-05T16:55:56.557Z,5.98
2023-03-05T16:59:20.648Z,5.95
2023-03-05T17:02:42.220Z,6.05
2023-03-05T17:06:18.910Z,5.90
2023-03-05T17:09:41.018Z,5.99
2023-03-05T17:13:02.578Z,6.00
2023-03-05T17:16:24.249Z,5.85
2023-03-05T17:19:48.409Z,5.35
2023-03-05T17:23:12.177Z,5.22
2023-03-05T17:26:36.770Z,5.34
2023-03-05T17:30:00.598Z,5.79
2023-03-05T17:33:22.200Z,5.88
2023-03-05T17:36:45.276Z,5.59
2023-03-05T17:40:10.522Z,5.86
2023-03-05T17:43:32.160Z,5.50
2023-03-05T17:46:54.313Z,5.45
2023-03-05T17:50:15.911Z,5.28
2023-03-05T17:53:39.459Z,5.48
2023-03-05T17:57:01.261Z,5.37
2023-03-05T18:00:25.663Z,5.28
2023-03-05T18:03:52.192Z,5.28
2023-03-05T18:07:16.297Z,5.52
2023-03-05T18:10:37.917Z,5.38
2023-03-05T18:14:02.025Z,5.44
2023-03-05T18:17:23.805Z,5.58
2023-03-05T18:20:45.999Z,5.51
2023-03-05T18:24:09.054Z,5.56
2023-03-05T18:27:31.153Z,5.65
2023-03-05T18:30:53.055Z,5.72
2023-03-05T18:34:18.000Z,5.90
2023-03-05T18:37:39.898Z,5.71
2023-03-05T18:41:02.930Z,5.76
2023-03-05T18:44:24.515Z,5.58
2023-03-05T18:47:54.561Z,5.81
2023-03-05T18:51:21.652Z,5.61
2023-03-05T18:54:43.277Z,5.75
2023-03-05T18:58:05.136Z,5.78
2023-03-05T19:01:27.298Z,5.55
2023-03-05T19:04:48.878Z,5.58
2023-03-05T19:08:10.677Z,5.82
2023-03-05T19:11:32.250Z,7.23
2023-03-05T19:14:56.780Z,7.43
2023-03-05T19:19:15.972Z,7.71
2023-03-05T19:22:39.775Z,8.06
2023-03-05T19:26:05.655Z,7.85
2023-03-05T19:29:33.113Z,7.98
2023-03-05T19:32:59.537Z,7.55
2023-03-05T19:36:26.654Z,7.46
2023-03-05T19:39:48.604Z,7.05
2023-03-05T19:43:10.233Z,6.57
2023-03-05T19:46:31.834Z,6.31
2023-03-05T19:49:54.062Z,6.10
2023-03-05T19:53:18.110Z,6.07
2023-03-05T19:56:44.167Z,6.06
2023-03-05T20:00:09.085Z,6.81
2023-03-05T20:03:34.258Z,7.54
2023-03-05T20:06:58.113Z,8.01
2023-03-05T20:10:22.520Z,8.14
2023-03-05T20:13:47.607Z,8.06
2023-03-05T20:17:11.456Z,7.99
2023-03-05T20:20:33.453Z,7.77
2023-03-05T20:24:00.754Z,7.84
2023-03-05T20:27:24.793Z,7.81
2023-03-05T20:30:52.890Z,7.28
2023-03-05T20:34:19.810Z,7.53
2023-03-05T20:38:25.299Z,7.58
2023-03-05T20:41:47.020Z,7.20
2023-03-05T20:45:09.175Z,6.96
2023-03-05T20:48:34.495Z,6.89
2023-03-05T20:51:56.693Z,7.05
2023-03-05T20:55:18.332Z,7.24
2023-03-05T20:58:40.066Z,7.53
2023-03-05T21:02:01.702Z,7.68
2023-03-05T21:05:30.186Z,7.79
2023-03-05T21:08:52.076Z,7.86
2023-03-05T21:12:13.869Z,7.57
2023-03-05T21:15:35.459Z,7.65
2023-03-05T21:18:57.404Z,7.33
2023-03-05T21:22:19.625Z,6.91
2023-03-05T21:25:41.353Z,6.58
2023-03-05T21:29:05.641Z,6.55
2023-03-05T21:32:27.370Z,6.47
2023-03-05T21:35:54.829Z,6.38
2023-03-05T21:39:18.686Z,6.50
2023-03-05T21:42:42.947Z,6.92
2023-03-05T21:46:04.869Z,7.10
2023-03-05T21:49:26.666Z,7.38
2023-03-05T21:52:52.558Z,7.43
2023-03-05T21:56:26.372Z,7.61
2023-03-05T21:59:47.969Z,7.70
2023-03-05T22:03:09.525Z,7.53
2023-03-05T22:06:31.147Z,7.46
2023-03-05T22:09:56.325Z,7.60
2023-03-05T22:13:20.107Z,7.61
2023-03-05T22:16:41.789Z,7.79
2023-03-05T22:20:07.489Z,7.84
2023-03-05T22:23:34.111Z,7.44
2023-03-05T22:26:58.015Z,7.13
2023-03-05T22:30:19.693Z,7.00
2023-03-05T22:33:43.960Z,6.98
2023-03-05T22:37:05.511Z,6.72
2023-03-05T22:40:27.238Z,6.54
2023-03-05T22:43:49.847Z,6.55
2023-03-05T22:47:11.632Z,6.40
2023-03-05T22:50:35.908Z,6.44
2023-03-05T22:53:58.059Z,6.17
2023-03-05T22:57:19.773Z,6.06
2023-03-05T23:00:43.474Z,5.99
2023-03-05T23:04:43.459Z,6.06
2023-03-05T23:08:05.968Z,5.98
2023-03-05T23:11:29.867Z,5.89
2023-03-05T23:14:51.622Z,5.86
2023-03-05T23:18:15.041Z,5.90
2023-03-05T23:21:39.582Z,5.86
2023-03-05T23:25:01.144Z,5.86
2023-03-05T23:28:22.819Z,5.92
2023-03-05T23:31:44.434Z,5.78
2023-03-05T23:35:06.419Z,5.63
2023-03-05T23:38:30.252Z,5.78
2023-03-05T23:41:54.049Z,5.62
2023-03-05T23:45:17.748Z,5.48
2023-03-05T23:48:39.403Z,5.43
2023-03-05T23:52:03.126Z,5.51
2023-03-05T23:55:28.026Z,5.43
2023-03-05T23:58:49.579Z,5.40
